createdAt,value
2023-10-09T00:01:19.635Z,27.30
2023-10-09T00:02:56.482Z,27.15
2023-10-09T00:04:32.284Z,26.44
2023-10-09T00:06:08.318Z,26.95
2023-10-09T00:07:44.895Z,27.04
2023-10-09T00:09:20.866Z,26.75
2023-10-09T00:10:56.733Z,26.79
2023-10-09T00:12:34.956Z,26.91
2023-10-09T00:14:10.759Z,26.52
2023-10-09T00:15:54.131Z,26.64
2023-10-09T00:17:33.156Z,26.62
2023-10-09T00:19:20.889Z,26.86
2023-10-09T00:20:57.381Z,26.72
2023-10-09T00:22:39.958Z,26.75
2023-10-09T00:24:18.550Z,26.80
2023-10-09T00:26:20.781Z,26.88
2023-10-09T00:28:01.824Z,26.84
2023-10-09T00:29:44.363Z,26.86
2023-10-09T00:31:35.891Z,26.47
2023-10-09T00:33:13.638Z,25.96
2023-10-09T00:34:52.419Z,26.28
2023-10-09T00:36:31.622Z,25.86
2023-10-09T00:38:34.643Z,26.17
2023-10-09T00:40:22.100Z,26.26
2023-10-09T00:42:00.865Z,26.18
2023-10-09T00:43:38.910Z,26.53
2023-10-09T00:45:18.628Z,26.56
2023-10-09T00:46:56.088Z,26.69
2023-10-09T00:48:40.002Z,25.96
2023-10-09T00:50:18.917Z,26.12
2023-10-09T00:51:58.316Z,26.69
2023-10-09T00:53:35.040Z,26.44
2023-10-09T00:55:16.364Z,26.53
2023-10-09T00:56:59.592Z,26.42
2023-10-09T00:58:37.967Z,26.65
2023-10-09T01:00:34.563Z,26.18
2023-10-09T01:02:11.465Z,26.18
2023-10-09T01:03:47.676Z,26.02
2023-10-09T01:05:24.020Z,25.72
2023-10-09T01:07:18.421Z,25.80
2023-10-09T01:09:11.651Z,25.71
2023-10-09T01:10:55.508Z,25.89
2023-10-09T01:12:31.234Z,25.71
2023-10-09T01:14:10.327Z,25.49
2023-10-09T01:15:47.594Z,25.82
2023-10-09T01:17:38.192Z,26.00
2023-10-09T01:19:32.884Z,26.18
2023-10-09T01:21:09.037Z,25.77
2023-10-09T01:22:46.161Z,25.88
2023-10-09T01:24:22.709Z,25.51
2023-10-09T01:25:58.427Z,25.71
2023-10-09T01:27:34.416Z,25.50
2023-10-09T01:29:18.403Z,25.98
2023-10-09T01:30:57.431Z,26.00
2023-10-09T01:32:33.201Z,24.98
2023-10-09T01:34:11.984Z,24.99
2023-10-09T01:35:51.787Z,25.58
2023-10-09T01:37:38.585Z,25.16
2023-10-09T01:39:25.727Z,25.48
2023-10-09T01:41:10.629Z,25.51
2023-10-09T01:42:49.142Z,25.25
2023-10-09T01:44:25.341Z,24.80
2023-10-09T01:46:03.138Z,25.69
2023-10-09T01:47:39.986Z,25.76
2023-10-09T01:49:23.377Z,25.45
2023-10-09T01:51:00.459Z,24.91
2023-10-09T01:52:38.001Z,25.18
2023-10-09T01:54:29.747Z,24.31
2023-10-09T01:56:17.293Z,24.98
2023-10-09T01:57:53.239Z,24.76
2023-10-09T01:59:29.353Z,25.60
2023-10-09T02:01:08.780Z,25.46
2023-10-09T02:02:47.189Z,25.41
2023-10-09T02:04:23.627Z,25.59
2023-10-09T02:06:02.179Z,25.19
2023-10-09T02:07:54.431Z,24.88
2023-10-09T02:09:33.477Z,24.92
2023-10-09T02:11:16.417Z,24.80
2023-10-09T02:13:00.185Z,24.49
2023-10-09T02:14:43.337Z,24.49
2023-10-09T02:16:30.173Z,24.23
2023-10-09T02:18:18.851Z,25.15
2023-10-09T02:19:54.515Z,25.30
2023-10-09T02:21:41.928Z,25.23
2023-10-09T02:23:23.328Z,25.33
2023-10-09T02:25:02.602Z,25.53
2023-10-09T02:26:41.009Z,25.18
2023-10-09T02:28:19.916Z,25.14
2023-10-09T02:29:58.678Z,25.54
2023-10-09T02:31:42.581Z,25.43
2023-10-09T02:33:32.774Z,25.24
2023-10-09T02:35:12.532Z,25.05
2023-10-09T02:36:51.656Z,25.13
2023-10-09T02:38:33.765Z,24.99
2023-10-09T02:40:10.777Z,24.86
2023-10-09T02:41:51.563Z,25.12
2023-10-09T02:43:28.616Z,24.80
2023-10-09T02:45:06.110Z,25.12
2023-10-09T02:46:42.185Z,24.68
2023-10-09T02:48:22.212Z,24.70
2023-10-09T02:50:03.386Z,25.00
2023-10-09T02:51:50.276Z,24.45
2023-10-09T02:53:32.098Z,25.16
2023-10-09T02:55:14.550Z,25.09
2023-10-09T02:57:12.070Z,25.03
2023-10-09T02:58:50.487Z,24.76
2023-10-09T03:00:31.786Z,24.16
2023-10-09T03:02:07.791Z,25.03
2023-10-09T03:03:53.158Z,24.91
2023-10-09T03:05:30.524Z,24.76
2023-10-09T03:07:06.219Z,24.29
2023-10-09T03:08:42.687Z,24.49
2023-10-09T03:10:19.570Z,24.28
2023-10-09T03:12:05.715Z,24.44
2023-10-09T03:13:46.725Z,24.65
2023-10-09T03:15:25.093Z,24.27
2023-10-09T03:17:04.252Z,24.13
2023-10-09T03:18:40.350Z,24.55
2023-10-09T03:20:19.456Z,24.02
2023-10-09T03:21:55.755Z,24.75
2023-10-09T03:23:31.729Z,24.36
2023-10-09T03:25:15.496Z,24.42
2023-10-09T03:26:51.810Z,24.36
2023-10-09T03:28:28.575Z,24.00
2023-10-09T03:30:07.249Z,24.02
2023-10-09T03:31:45.087Z,24.30
2023-10-09T03:33:21.071Z,23.83
2023-10-09T03:34:57.441Z,24.11
2023-10-09T03:36:39.562Z,23.64
2023-10-09T03:38:18.753Z,23.44
2023-10-09T03:39:56.984Z,23.71
2023-10-09T03:41:34.019Z,23.52
2023-10-09T03:43:12.177Z,23.57
2023-10-09T03:44:55.592Z,23.94
2023-10-09T03:46:35.706Z,23.79
2023-10-09T03:48:17.994Z,23.43
2023-10-09T03:49:55.879Z,23.44
2023-10-09T03:51:31.984Z,23.36
2023-10-09T03:53:13.728Z,24.03
2023-10-09T03:54:51.426Z,24.32
2023-10-09T03:56:27.755Z,24.11
2023-10-09T03:58:03.985Z,23.77
2023-10-09T03:59:39.665Z,23.06
2023-10-09T04:01:40.702Z,23.16
2023-10-09T04:03:17.595Z,23.28
2023-10-09T04:04:53.751Z,23.49
2023-10-09T04:06:32.749Z,23.05
2023-10-09T04:08:18.487Z,22.70
2023-10-09T04:10:14.275Z,23.24
2023-10-09T04:12:12.866Z,23.82
2023-10-09T04:13:48.881Z,23.40
2023-10-09T04:15:25.478Z,23.18
2023-10-09T04:17:27.663Z,22.86
2023-10-09T04:19:29.982Z,22.63
2023-10-09T04:21:21.312Z,23.46
2023-10-09T04:23:07.345Z,23.57
2023-10-09T04:24:43.447Z,23.55
2023-10-09T04:26:22.856Z,23.48
2023-10-09T04:28:11.713Z,22.96
2023-10-09T04:29:51.808Z,23.57
2023-10-09T04:31:34.161Z,23.29
2023-10-09T04:33:31.183Z,23.50
2023-10-09T04:35:26.194Z,23.23
2023-10-09T04:37:11.293Z,23.67
2023-10-09T04:39:05.655Z,23.22
2023-10-09T04:40:48.058Z,23.23
2023-10-09T04:42:27.045Z,24.19
2023-10-09T04:44:21.726Z,23.32
2023-10-09T04:46:12.248Z,23.40
2023-10-09T04:48:00.590Z,23.19
2023-10-09T04:49:57.306Z,23.53
2023-10-09T04:51:41.073Z,23.22
2023-10-09T04:53:20.022Z,23.42
2023-10-09T04:55:13.892Z,23.77
2023-10-09T04:56:55.820Z,23.53
2023-10-09T04:58:35.315Z,23.18
2023-10-09T05:00:44.736Z,23.21
2023-10-09T05:02:25.475Z,23.38
2023-10-09T05:04:05.022Z,23.16
2023-10-09T05:05:45.359Z,23.28
2023-10-09T05:07:47.825Z,23.33
2023-10-09T05:09:25.948Z,23.35
2023-10-09T05:11:03.769Z,23.40
2023-10-09T05:12:48.354Z,23.42
2023-10-09T05:14:40.655Z,23.42
2023-10-09T05:16:24.599Z,23.71
2023-10-09T05:18:11.293Z,23.51
2023-10-09T05:20:19.021Z,23.53
2023-10-09T05:21:55.239Z,23.53
2023-10-09T05:23:31.208Z,23.31
2023-10-09T05:25:17.783Z,23.59
2023-10-09T05:26:54.339Z,23.83
2023-10-09T05:28:33.431Z,24.15
2023-10-09T05:30:28.555Z,24.43
2023-10-09T05:32:14.407Z,23.48
2023-10-09T05:33:54.942Z,23.94
2023-10-09T05:35:43.252Z,24.09
2023-10-09T05:37:27.068Z,24.10
2023-10-09T05:39:24.481Z,23.46
2023-10-09T05:41:20.197Z,24.26
2023-10-09T05:43:01.943Z,24.10
2023-10-09T05:44:56.492Z,24.41
2023-10-09T05:46:37.536Z,23.94
2023-10-09T05:48:16.577Z,23.97
2023-10-09T05:50:10.769Z,24.75
2023-10-09T05:51:55.309Z,24.93
2023-10-09T05:53:46.397Z,24.91
2023-10-09T05:55:45.188Z,24.34
2023-10-09T05:57:41.214Z,23.87
2023-10-09T05:59:55.074Z,24.68
2023-10-09T06:01:49.437Z,24.27
2023-10-09T06:03:47.502Z,24.45
2023-10-09T06:05:41.710Z,24.88
2023-10-09T06:07:25.269Z,24.84
2023-10-09T06:09:18.156Z,25.01
2023-10-09T06:11:08.669Z,24.65
2023-10-09T06:12:44.553Z,24.64
2023-10-09T06:14:47.841Z,24.62
2023-10-09T06:16:44.234Z,24.77
2023-10-09T06:18:34.759Z,24.63
2023-10-09T06:20:31.261Z,24.57
2023-10-09T06:22:25.537Z,25.29
2023-10-09T06:24:20.054Z,25.55
2023-10-09T06:26:04.971Z,25.48
2023-10-09T06:27:55.685Z,25.58
2023-10-09T06:29:38.490Z,25.90
2023-10-09T06:31:51.336Z,26.10
2023-10-09T06:33:53.634Z,25.35
2023-10-09T06:35:32.779Z,25.64
2023-10-09T06:37:26.473Z,25.66
2023-10-09T06:39:22.266Z,25.82
2023-10-09T06:41:24.102Z,25.70
2023-10-09T06:43:00.082Z,26.34
2023-10-09T06:44:56.039Z,25.60
2023-10-09T06:46:47.447Z,25.41
2023-10-09T06:48:41.658Z,25.98
2023-10-09T06:50:23.426Z,25.33
2023-10-09T06:52:15.672Z,25.76
2023-10-09T06:53:57.461Z,25.84
2023-10-09T06:55:51.103Z,25.74
2023-10-09T06:57:47.312Z,25.82
2023-10-09T06:59:43.656Z,25.38
2023-10-09T07:01:27.447Z,25.48
2023-10-09T07:03:13.241Z,25.70
2023-10-09T07:04:49.387Z,25.83
2023-10-09T07:06:48.299Z,25.83
2023-10-09T07:08:39.176Z,26.31
2023-10-09T07:10:34.702Z,26.26
2023-10-09T07:12:28.125Z,25.58
2023-10-09T07:14:04.537Z,25.10
2023-10-09T07:16:03.767Z,25.71
2023-10-09T07:17:39.532Z,25.59
2023-10-09T07:19:37.367Z,25.64
2023-10-09T07:21:19.914Z,25.64
2023-10-09T07:22:58.101Z,25.68
2023-10-09T07:24:45.364Z,26.13
2023-10-09T07:26:25.103Z,25.80
2023-10-09T07:28:04.603Z,26.74
2023-10-09T07:29:49.840Z,26.35
2023-10-09T07:31:29.646Z,26.81
2023-10-09T07:33:13.962Z,26.89
2023-10-09T07:34:54.816Z,26.52
2023-10-09T07:36:36.925Z,26.78
2023-10-09T07:38:30.498Z,26.19
2023-10-09T07:40:10.069Z,26.63
2023-10-09T07:41:58.248Z,25.88
2023-10-09T07:43:41.640Z,27.16
2023-10-09T07:45:23.391Z,26.83
2023-10-09T07:47:17.392Z,27.05
2023-10-09T07:48:56.656Z,27.54
2023-10-09T07:50:50.623Z,26.79
2023-10-09T07:52:28.084Z,26.13
2023-10-09T07:54:10.553Z,26.66
2023-10-09T07:55:56.124Z,26.56
2023-10-09T07:57:40.677Z,26.65
2023-10-09T07:59:20.147Z,27.00
2023-10-09T08:01:09.870Z,26.98
2023-10-09T08:02:45.920Z,27.57
2023-10-09T08:04:41.641Z,27.78
2023-10-09T08:06:36.872Z,28.27
2023-10-09T08:08:39.661Z,28.32
2023-10-09T08:10:15.801Z,28.51
2023-10-09T08:12:27.209Z,28.17
2023-10-09T08:14:03.828Z,28.76
2023-10-09T08:15:55.026Z,27.39
2023-10-09T08:17:31.152Z,27.67
2023-10-09T08:19:29.965Z,27.80
2023-10-09T08:21:05.968Z,27.85
2023-10-09T08:22:54.440Z,27.19
2023-10-09T08:24:59.149Z,27.90
2023-10-09T08:26:49.282Z,27.32
2023-10-09T08:28:41.560Z,27.82
2023-10-09T08:30:20.381Z,28.44
2023-10-09T08:31:58.956Z,28.20
2023-10-09T08:35:31.564Z,28.67
2023-10-09T08:37:08.431Z,28.66
2023-10-09T08:38:44.290Z,28.89
2023-10-09T08:40:23.073Z,28.88
2023-10-09T08:42:03.994Z,29.13
2023-10-09T08:43:44.063Z,29.86
2023-10-09T08:45:29.599Z,29.96
2023-10-09T08:47:09.418Z,29.31
2023-10-09T08:48:45.279Z,29.12
2023-10-09T08:50:21.655Z,28.67
2023-10-09T08:51:58.918Z,29.30
2023-10-09T08:53:35.269Z,29.82
2023-10-09T08:55:11.361Z,29.16
2023-10-09T08:56:53.117Z,29.24
2023-10-09T08:58:34.657Z,29.53
2023-10-09T09:00:14.251Z,29.91
2023-10-09T09:01:51.598Z,29.29
2023-10-09T09:03:27.933Z,29.89
2023-10-09T09:05:20.574Z,29.54
2023-10-09T09:06:56.515Z,29.70
2023-10-09T09:08:34.593Z,29.67
2023-10-09T09:10:19.538Z,29.93
2023-10-09T09:11:55.644Z,29.69
2023-10-09T09:13:33.732Z,29.27
2023-10-09T09:15:28.886Z,28.47
2023-10-09T09:17:07.062Z,29.85
2023-10-09T09:18:58.346Z,28.99
2023-10-09T09:20:55.740Z,28.51
2023-10-09T09:22:53.879Z,29.96
2023-10-09T09:24:32.894Z,30.21
2023-10-09T09:26:13.969Z,29.65
2023-10-09T09:27:59.317Z,28.95
2023-10-09T09:29:41.118Z,29.76
2023-10-09T09:31:24.225Z,29.90
2023-10-09T09:33:22.606Z,29.31
2023-10-09T09:35:06.285Z,29.95
2023-10-09T09:36:59.969Z,29.67
2023-10-09T09:38:44.227Z,29.40
2023-10-09T09:40:35.277Z,30.39
2023-10-09T09:42:15.895Z,30.62
2023-10-09T09:44:03.768Z,30.07
2023-10-09T09:45:41.662Z,30.32
2023-10-09T09:47:30.028Z,30.39
2023-10-09T09:49:23.693Z,31.19
2023-10-09T09:50:59.738Z,30.98
2023-10-09T09:52:40.644Z,31.43
2023-10-09T09:54:17.705Z,30.51
2023-10-09T09:55:59.685Z,30.66
2023-10-09T09:57:41.594Z,30.50
2023-10-09T09:59:23.464Z,30.56
2023-10-09T10:01:18.197Z,30.98
2023-10-09T10:02:58.398Z,30.53
2023-10-09T10:04:39.996Z,30.92
2023-10-09T10:06:21.118Z,30.71
2023-10-09T10:07:58.199Z,31.18
2023-10-09T10:09:43.827Z,31.49
2023-10-09T10:11:48.642Z,30.99
2023-10-09T10:13:44.139Z,31.44
2023-10-09T10:15:21.036Z,31.90
2023-10-09T10:17:20.436Z,31.88
2023-10-09T10:19:09.271Z,32.37
2023-10-09T10:21:35.165Z,31.97
2023-10-09T10:23:23.122Z,32.45
2023-10-09T10:25:11.487Z,32.33
2023-10-09T10:26:47.408Z,31.96
2023-10-09T10:28:40.823Z,32.58
2023-10-09T10:30:26.021Z,32.97
2023-10-09T10:32:12.517Z,32.51
2023-10-09T10:33:57.232Z,31.85
2023-10-09T10:35:46.872Z,31.71
2023-10-09T10:37:24.182Z,31.71
2023-10-09T10:39:21.609Z,31.47
2023-10-09T10:41:02.640Z,31.66
2023-10-09T10:42:59.784Z,31.61
2023-10-09T10:44:38.593Z,31.79
2023-10-09T10:46:26.203Z,32.50
2023-10-09T10:48:08.760Z,32.82
2023-10-09T10:49:51.193Z,32.23
2023-10-09T10:51:44.014Z,32.23
2023-10-09T10:53:21.842Z,32.40
2023-10-09T10:55:19.934Z,32.75
2023-10-09T10:56:59.485Z,31.88
2023-10-09T10:58:49.513Z,32.11
2023-10-09T11:00:45.401Z,31.92
2023-10-09T11:02:30.188Z,32.18
2023-10-09T11:04:15.015Z,31.48
2023-10-09T11:05:54.868Z,31.62
2023-10-09T11:07:30.958Z,30.62
2023-10-09T11:09:50.183Z,31.77
2023-10-09T11:11:43.105Z,31.99
2023-10-09T11:13:34.852Z,31.18
2023-10-09T11:15:24.219Z,31.60
2023-10-09T11:17:00.191Z,31.64
2023-10-09T11:18:51.072Z,31.98
2023-10-09T11:20:28.452Z,31.85
2023-10-09T11:22:10.718Z,31.90
2023-10-09T11:23:52.945Z,32.15
2023-10-09T11:25:29.112Z,31.53
2023-10-09T11:27:09.177Z,32.37
2023-10-09T11:28:50.822Z,32.00
2023-10-09T11:30:34.563Z,32.31
2023-10-09T11:32:19.497Z,32.30
2023-10-09T11:33:55.912Z,32.39
2023-10-09T11:35:36.790Z,32.27
2023-10-09T11:37:27.538Z,32.62
2023-10-09T11:39:23.794Z,32.58
2023-10-09T11:41:00.002Z,32.09
2023-10-09T11:42:40.595Z,31.83
2023-10-09T11:44:25.952Z,32.04
2023-10-09T11:46:14.002Z,31.97
2023-10-09T11:48:01.048Z,32.45
2023-10-09T11:49:46.398Z,31.94
2023-10-09T11:51:23.353Z,30.84
2023-10-09T11:53:19.375Z,31.37
2023-10-09T11:54:58.262Z,32.21
2023-10-09T11:56:34.438Z,31.67
2023-10-09T11:58:11.000Z,31.92
2023-10-09T11:59:46.855Z,32.05
2023-10-09T12:01:25.359Z,32.15
2023-10-09T12:03:08.272Z,32.51
2023-10-09T12:04:46.813Z,31.63
2023-10-09T12:06:34.139Z,32.30
2023-10-09T12:08:10.514Z,32.11
2023-10-09T12:09:46.312Z,32.14
2023-10-09T12:11:30.980Z,32.50
2023-10-09T12:13:09.529Z,32.83
2023-10-09T12:14:46.046Z,33.04
2023-10-09T12:16:24.120Z,33.12
2023-10-09T12:18:00.099Z,33.34
2023-10-09T12:19:39.518Z,33.66
2023-10-09T12:21:17.691Z,33.25
2023-10-09T12:22:53.668Z,33.35
2023-10-09T12:24:31.253Z,32.64
2023-10-09T12:26:07.802Z,33.14
2023-10-09T12:27:45.660Z,32.87
2023-10-09T12:29:21.930Z,31.96
2023-10-09T12:31:03.232Z,32.10
2023-10-09T12:32:39.531Z,32.22
2023-10-09T12:34:18.771Z,32.82
2023-10-09T12:35:54.651Z,32.76
2023-10-09T12:37:33.353Z,32.82
2023-10-09T12:39:19.524Z,32.94
2023-10-09T12:40:55.701Z,33.01
2023-10-09T12:42:34.916Z,32.97
2023-10-09T12:44:16.972Z,33.05
2023-10-09T12:45:53.079Z,32.74
2023-10-09T12:47:29.290Z,32.65
2023-10-09T12:49:05.566Z,32.47
2023-10-09T12:50:46.211Z,33.26
2023-10-09T12:52:22.268Z,32.72
2023-10-09T12:54:03.138Z,32.90
2023-10-09T12:55:46.076Z,32.14
2023-10-09T12:57:22.318Z,32.36
2023-10-09T12:58:59.016Z,32.82
2023-10-09T13:00:39.076Z,32.93
2023-10-09T13:02:47.235Z,33.09
2023-10-09T13:04:24.729Z,32.95
2023-10-09T13:06:01.252Z,32.82
2023-10-09T13:07:37.273Z,33.26
2023-10-09T13:09:17.754Z,33.00
2023-10-09T13:11:00.829Z,32.99
2023-10-09T13:12:43.110Z,33.08
2023-10-09T13:14:19.502Z,33.33
2023-10-09T13:15:55.483Z,33.59
2023-10-09T13:17:33.345Z,33.50
2023-10-09T13:19:13.175Z,33.28
2023-10-09T13:20:49.088Z,33.93
2023-10-09T13:22:25.004Z,33.88
2023-10-09T13:24:02.541Z,34.00
2023-10-09T13:25:41.661Z,33.41
2023-10-09T13:27:23.393Z,33.04
2023-10-09T13:29:00.210Z,32.32
2023-10-09T13:30:51.129Z,32.36
2023-10-09T13:32:26.908Z,33.23
2023-10-09T13:34:03.204Z,33.18
2023-10-09T13:35:50.284Z,33.42
2023-10-09T13:37:26.531Z,33.57
2023-10-09T13:39:26.530Z,33.34
2023-10-09T13:41:03.306Z,33.43
2023-10-09T13:42:39.651Z,33.27
2023-10-09T13:44:16.469Z,32.82
2023-10-09T13:45:52.570Z,32.92
2023-10-09T13:47:33.547Z,33.34
2023-10-09T13:49:16.424Z,33.26
2023-10-09T13:51:00.259Z,33.35
2023-10-09T13:52:41.252Z,32.58
2023-10-09T13:54:23.378Z,32.82
2023-10-09T13:55:59.338Z,32.53
2023-10-09T13:57:35.403Z,33.07
2023-10-09T13:59:12.990Z,32.99
2023-10-09T14:00:52.072Z,33.25
2023-10-09T14:02:30.685Z,32.57
2023-10-09T14:04:10.197Z,32.71
2023-10-09T14:05:56.757Z,33.00
2023-10-09T14:07:36.754Z,33.15
2023-10-09T14:09:13.627Z,32.80
2023-10-09T14:10:50.463Z,33.26
2023-10-09T14:12:28.498Z,32.94
2023-10-09T14:14:11.708Z,33.12
2023-10-09T14:15:48.314Z,32.65
2023-10-09T14:17:25.588Z,32.30
2023-10-09T14:19:02.699Z,32.46
2023-10-09T14:20:39.532Z,32.63
2023-10-09T14:22:26.613Z,33.36
2023-10-09T14:24:01.941Z,33.61
2023-10-09T14:25:46.091Z,33.50
2023-10-09T14:27:21.812Z,33.53
2023-10-09T14:29:01.450Z,33.30
2023-10-09T14:30:44.010Z,32.75
2023-10-09T14:32:20.303Z,32.71
2023-10-09T14:33:57.622Z,32.99
2023-10-09T14:35:35.231Z,32.30
2023-10-09T14:37:17.039Z,32.85
2023-10-09T14:38:58.046Z,32.80
2023-10-09T14:40:34.085Z,33.05
2023-10-09T14:42:13.414Z,32.86
2023-10-09T14:43:50.337Z,33.20
2023-10-09T14:45:29.433Z,32.98
2023-10-09T14:47:07.689Z,33.04
2023-10-09T14:48:47.979Z,32.91
2023-10-09T14:50:24.443Z,32.94
2023-10-09T14:52:01.137Z,32.54
2023-10-09T14:53:36.882Z,32.78
2023-10-09T14:55:14.032Z,32.22
2023-10-09T14:56:49.774Z,32.69
2023-10-09T14:58:30.955Z,32.18
2023-10-09T15:00:15.865Z,31.94
2023-10-09T15:01:52.464Z,32.38
2023-10-09T15:03:30.233Z,32.68
2023-10-09T15:05:06.862Z,32.65
2023-10-09T15:06:42.977Z,32.77
2023-10-09T15:08:19.669Z,33.19
2023-10-09T15:09:55.462Z,32.71
2023-10-09T15:11:35.039Z,32.79
2023-10-09T15:13:10.853Z,32.56
2023-10-09T15:14:46.958Z,32.63
2023-10-09T15:16:23.471Z,32.56
2023-10-09T15:17:59.590Z,32.61
2023-10-09T15:19:35.538Z,32.78
2023-10-09T15:21:11.542Z,32.15
2023-10-09T15:22:48.204Z,32.28
2023-10-09T15:24:24.987Z,32.48
2023-10-09T15:26:03.409Z,32.16
2023-10-09T15:27:41.110Z,31.95
2023-10-09T15:29:18.350Z,32.25
2023-10-09T15:30:54.480Z,32.17
2023-10-09T15:32:30.873Z,32.19
2023-10-09T15:34:10.581Z,32.19
2023-10-09T15:35:51.815Z,32.43
2023-10-09T15:37:28.907Z,32.39
2023-10-09T15:39:05.516Z,31.88
2023-10-09T15:40:44.683Z,31.88
2023-10-09T15:42:21.432Z,32.03
2023-10-09T15:44:03.175Z,31.83
2023-10-09T15:45:44.901Z,31.85
2023-10-09T15:47:21.287Z,31.91
2023-10-09T15:48:57.920Z,31.82
2023-10-09T15:50:36.298Z,31.79
2023-10-09T15:52:16.031Z,31.48
2023-10-09T15:53:53.676Z,31.71
2023-10-09T15:55:29.686Z,32.10
2023-10-09T15:57:12.512Z,32.04
2023-10-09T15:58:49.428Z,32.01
2023-10-09T16:00:30.622Z,31.70
2023-10-09T16:02:07.556Z,31.57
2023-10-09T16:03:45.080Z,31.50
2023-10-09T16:05:27.536Z,31.34
2023-10-09T16:07:07.271Z,31.61
2023-10-09T16:08:44.322Z,31.52
2023-10-09T16:10:22.503Z,31.53
2023-10-09T16:11:58.274Z,31.30
2023-10-09T16:13:34.719Z,31.14
2023-10-09T16:15:11.681Z,31.20
2023-10-09T16:16:48.016Z,31.15
2023-10-09T16:18:23.856Z,31.14
2023-10-09T16:20:01.683Z,30.95
2023-10-09T16:21:38.583Z,31.46
2023-10-09T16:23:14.656Z,31.38
2023-10-09T16:24:52.227Z,31.44
2023-10-09T16:26:28.909Z,31.39
2023-10-09T16:28:05.741Z,31.02
2023-10-09T16:29:41.790Z,30.94
2023-10-09T16:31:20.843Z,31.25
2023-10-09T16:32:58.136Z,31.37
2023-10-09T16:34:34.711Z,31.37
2023-10-09T16:36:11.382Z,31.47
2023-10-09T16:37:51.470Z,31.21
2023-10-09T16:39:34.548Z,31.44
2023-10-09T16:41:10.898Z,31.19
2023-10-09T16:42:48.568Z,31.11
2023-10-09T16:44:24.520Z,31.14
2023-10-09T16:46:03.262Z,31.13
2023-10-09T16:47:40.866Z,31.18
2023-10-09T16:49:16.706Z,31.19
2023-10-09T16:50:52.634Z,31.01
2023-10-09T16:52:28.537Z,31.01
2023-10-09T16:54:06.642Z,30.90
2023-10-09T16:55:50.749Z,30.73
2023-10-09T16:57:26.802Z,30.57
2023-10-09T16:59:02.726Z,30.28
2023-10-09T17:00:39.156Z,30.49
2023-10-09T17:02:15.078Z,30.66
2023-10-09T17:03:57.004Z,30.43
2023-10-09T17:05:38.318Z,30.65
2023-10-09T17:07:17.309Z,30.31
2023-10-09T17:08:54.615Z,30.05
2023-10-09T17:10:36.598Z,30.26
2023-10-09T17:12:14.432Z,30.26
2023-10-09T17:13:51.312Z,30.32
2023-10-09T17:15:34.731Z,30.24
2023-10-09T17:17:10.918Z,30.05
2023-10-09T17:18:57.097Z,29.75
2023-10-09T17:20:33.158Z,30.11
2023-10-09T17:22:12.909Z,29.98
2023-10-09T17:23:49.059Z,30.19
2023-10-09T17:25:25.280Z,30.11
2023-10-09T17:27:01.224Z,29.99
2023-10-09T17:28:38.495Z,30.03
2023-10-09T17:30:17.565Z,29.71
2023-10-09T17:31:53.402Z,29.89
2023-10-09T17:33:29.392Z,29.91
2023-10-09T17:35:12.042Z,30.16
2023-10-09T17:36:51.288Z,29.98
2023-10-09T17:38:27.465Z,29.92
2023-10-09T17:40:03.500Z,30.12
2023-10-09T17:41:39.904Z,30.31
2023-10-09T17:43:17.508Z,30.27
2023-10-09T17:44:53.730Z,30.09
2023-10-09T17:46:29.737Z,29.76
2023-10-09T17:48:10.373Z,29.77
2023-10-09T17:49:46.181Z,29.55
2023-10-09T17:51:22.079Z,29.54
2023-10-09T17:53:01.502Z,29.21
2023-10-09T17:54:37.423Z,29.05
2023-10-09T17:56:13.223Z,29.58
2023-10-09T17:57:51.752Z,29.41
2023-10-09T17:59:29.382Z,29.45
2023-10-09T18:01:10.279Z,29.41
2023-10-09T18:02:46.196Z,29.36
2023-10-09T18:04:22.489Z,29.52
2023-10-09T18:05:58.737Z,29.59
2023-10-09T18:07:35.041Z,29.55
2023-10-09T18:09:19.698Z,29.50
2023-10-09T18:11:02.972Z,29.57
2023-10-09T18:12:41.402Z,29.49
2023-10-09T18:14:18.742Z,29.28
2023-10-09T18:16:09.927Z,29.12
2023-10-09T18:17:46.143Z,28.97
2023-10-09T18:19:22.333Z,28.96
2023-10-09T18:20:58.513Z,29.13
2023-10-09T18:22:34.593Z,29.11
2023-10-09T18:24:15.932Z,29.26
2023-10-09T18:26:00.279Z,29.06
2023-10-09T18:27:36.511Z,28.92
2023-10-09T18:29:14.290Z,28.54
2023-10-09T18:30:53.950Z,28.56
2023-10-09T18:32:29.685Z,28.47
2023-10-09T18:34:09.543Z,28.71
2023-10-09T18:35:45.590Z,28.97
2023-10-09T18:37:21.616Z,28.92
2023-10-09T18:38:57.561Z,28.88
2023-10-09T18:40:34.082Z,28.71
2023-10-09T18:42:09.941Z,28.68
2023-10-09T18:43:46.884Z,28.82
2023-10-09T18:45:22.597Z,28.71
2023-10-09T18:46:59.024Z,28.79
2023-10-09T18:48:34.852Z,28.52
2023-10-09T18:50:14.047Z,28.38
2023-10-09T18:51:50.309Z,28.65
2023-10-09T18:53:28.462Z,28.91
2023-10-09T18:55:08.582Z,28.65
2023-10-09T18:56:44.773Z,28.27
2023-10-09T18:58:20.599Z,28.53
2023-10-09T18:59:56.566Z,28.53
2023-10-09T19:01:32.290Z,28.34
2023-10-09T19:03:12.457Z,28.55
2023-10-09T19:04:49.319Z,28.53
2023-10-09T19:06:26.393Z,28.27
2023-10-09T19:08:02.729Z,28.53
2023-10-09T19:09:38.553Z,28.45
2023-10-09T19:11:15.215Z,28.35
2023-10-09T19:12:51.072Z,28.40
2023-10-09T19:14:27.877Z,28.60
2023-10-09T19:16:07.349Z,28.85
2023-10-09T19:17:43.498Z,28.59
2023-10-09T19:19:19.626Z,28.51
2023-10-09T19:20:56.401Z,28.32
2023-10-09T19:22:32.146Z,27.99
2023-10-09T19:24:13.723Z,27.95
2023-10-09T19:25:49.626Z,28.33
2023-10-09T19:27:28.035Z,28.58
2023-10-09T19:29:03.781Z,28.32
2023-10-09T19:30:40.850Z,28.09
2023-10-09T19:32:17.878Z,28.24
2023-10-09T19:33:54.203Z,27.94
2023-10-09T19:35:30.106Z,28.28
2023-10-09T19:37:09.406Z,28.46
2023-10-09T19:38:52.222Z,28.25
2023-10-09T19:40:29.583Z,28.07
2023-10-09T19:42:06.308Z,28.17
2023-10-09T19:43:42.371Z,28.29
2023-10-09T19:45:21.676Z,28.22
2023-10-09T19:46:58.236Z,27.83
2023-10-09T19:48:35.234Z,27.69
2023-10-09T19:50:17.013Z,28.17
2023-10-09T19:51:54.990Z,28.16
2023-10-09T19:53:31.494Z,28.08
2023-10-09T19:55:10.357Z,28.28
2023-10-09T19:56:47.483Z,28.48
2023-10-09T19:58:23.240Z,28.30
2023-10-09T19:59:59.488Z,27.83
2023-10-09T20:01:36.623Z,27.80
2023-10-09T20:03:12.635Z,28.22
2023-10-09T20:04:52.050Z,28.19
2023-10-09T20:06:31.451Z,27.96
2023-10-09T20:08:08.038Z,28.22
2023-10-09T20:09:44.061Z,27.65
2023-10-09T20:11:20.206Z,28.07
2023-10-09T20:12:57.176Z,27.99
2023-10-09T20:14:33.470Z,28.01
2023-10-09T20:16:12.225Z,27.74
2023-10-09T20:17:48.192Z,27.86
2023-10-09T20:19:29.341Z,27.67
2023-10-09T20:21:07.710Z,27.96
2023-10-09T20:22:43.604Z,28.06
2023-10-09T20:24:19.320Z,27.68
2023-10-09T20:26:09.090Z,27.68
2023-10-09T20:27:45.301Z,27.46
2023-10-09T20:29:22.152Z,27.62
2023-10-09T20:31:03.306Z,27.78
2023-10-09T20:32:41.800Z,27.52
2023-10-09T20:34:20.386Z,27.37
2023-10-09T20:35:58.390Z,27.40
2023-10-09T20:37:34.937Z,27.66
2023-10-09T20:39:15.021Z,27.78
2023-10-09T20:40:51.160Z,27.63
2023-10-09T20:42:27.178Z,27.34
2023-10-09T20:44:06.574Z,27.48
2023-10-09T20:45:42.790Z,27.49
2023-10-09T20:47:18.721Z,27.20
2023-10-09T20:48:54.510Z,27.10
2023-10-09T20:50:31.608Z,27.27
2023-10-09T20:52:08.020Z,26.78
2023-10-09T20:53:44.100Z,27.11
2023-10-09T20:55:21.627Z,27.19
2023-10-09T20:56:57.694Z,27.33
2023-10-09T20:58:33.471Z,27.13
2023-10-09T21:00:20.977Z,26.70
2023-10-09T21:01:57.193Z,27.03
2023-10-09T21:03:33.318Z,27.22
2023-10-09T21:05:13.269Z,26.88
2023-10-09T21:06:49.222Z,27.10
2023-10-09T21:08:25.101Z,26.57
2023-10-09T21:10:02.426Z,26.57
2023-10-09T21:11:38.600Z,26.57
2023-10-09T21:13:16.769Z,27.06
2023-10-09T21:14:52.554Z,27.05
2023-10-09T21:16:28.761Z,27.10
2023-10-09T21:18:07.244Z,26.84
2023-10-09T21:19:44.632Z,27.20
2023-10-09T21:21:20.776Z,27.08
2023-10-09T21:22:57.582Z,27.20
2023-10-09T21:24:33.467Z,27.24
2023-10-09T21:26:24.376Z,27.31
2023-10-09T21:28:00.285Z,27.15
2023-10-09T21:29:36.692Z,26.76
2023-10-09T21:31:14.377Z,26.62
2023-10-09T21:32:50.806Z,26.83
2023-10-09T21:34:26.897Z,26.78
2023-10-09T21:36:03.089Z,26.20
2023-10-09T21:37:39.965Z,26.72
2023-10-09T21:39:19.684Z,26.39
2023-10-09T21:40:56.549Z,26.74
2023-10-09T21:42:32.422Z,26.72
2023-10-09T21:44:09.527Z,26.71
2023-10-09T21:45:50.173Z,26.74
2023-10-09T21:47:26.007Z,26.18
2023-10-09T21:49:02.178Z,26.06
2023-10-09T21:50:39.128Z,26.31